createdAt,value
2022-09-17T00:00:41.598Z,15.52
2022-09-17T00:05:44.586Z,15.82
2022-09-17T00:10:46.716Z,15.81
2022-09-17T00:15:49.007Z,15.88
2022-09-17T00:20:51.559Z,15.77
2022-09-17T00:25:53.729Z,15.61
2022-09-17T00:30:56.128Z,15.57
2022-09-17T00:36:02.473Z,15.72
2022-09-17T00:41:05.388Z,15.83
2022-09-17T00:46:31.798Z,16.03
2022-09-17T00:51:42.351Z,15.81
2022-09-17T00:56:44.958Z,16.00
2022-09-17T01:01:47.141Z,16.08
2022-09-17T01:07:08.021Z,15.97
2022-09-17T01:12:51.245Z,16.10
2022-09-17T01:18:19.323Z,16.00
2022-09-17T01:23:58.298Z,16.12
2022-09-17T01:29:09.852Z,15.96
2022-09-17T01:34:32.143Z,15.96
2022-09-17T01:39:34.714Z,15.98
2022-09-17T01:44:52.618Z,16.00
2022-09-17T01:50:02.880Z,15.66
2022-09-17T01:55:10.047Z,15.44
2022-09-17T02:00:15.986Z,15.47
2022-09-17T02:05:42.481Z,15.32
2022-09-17T02:10:48.408Z,15.04
2022-09-17T02:15:57.770Z,15.15
2022-09-17T02:21:10.884Z,15.55
2022-09-17T02:26:18.813Z,15.71
2022-09-17T02:31:21.335Z,15.78
2022-09-17T02:36:24.955Z,15.56
2022-09-17T02:41:36.753Z,15.01
2022-09-17T02:46:57.964Z,15.12
2022-09-17T02:52:06.208Z,14.99
2022-09-17T02:57:16.823Z,15.33
2022-09-17T03:02:25.747Z,14.93
2022-09-17T03:07:29.415Z,14.80
2022-09-17T03:12:32.146Z,14.99
2022-09-17T03:17:35.472Z,14.81
2022-09-17T03:22:37.677Z,14.92
2022-09-17T03:27:39.820Z,15.14
2022-09-17T03:32:41.961Z,14.78
2022-09-17T03:37:44.051Z,14.68
2022-09-17T03:42:46.317Z,14.69
2022-09-17T03:47:48.776Z,14.74
2022-09-17T03:52:51.029Z,14.74
2022-09-17T03:57:53.135Z,14.70
2022-09-17T04:02:55.217Z,14.55
2022-09-17T04:07:57.705Z,14.15
2022-09-17T04:12:59.970Z,14.51
2022-09-17T04:18:02.088Z,14.40
2022-09-17T04:23:04.401Z,14.50
2022-09-17T04:28:07.410Z,14.36
2022-09-17T04:33:10.191Z,14.51
2022-09-17T04:38:13.998Z,14.55
2022-09-17T04:43:16.159Z,14.54
2022-09-17T04:48:18.350Z,14.58
2022-09-17T04:53:20.538Z,14.47
2022-09-17T04:58:22.656Z,14.36
2022-09-17T05:03:24.910Z,14.68
2022-09-17T05:08:26.975Z,14.93
2022-09-17T05:13:29.149Z,15.02
2022-09-17T05:18:31.751Z,15.43
2022-09-17T05:23:47.702Z,15.92
2022-09-17T05:28:49.908Z,16.23
2022-09-17T05:33:52.241Z,16.66
2022-09-17T05:38:54.464Z,17.21
2022-09-17T05:43:56.650Z,17.60
2022-09-17T05:48:58.872Z,18.28
2022-09-17T05:54:02.522Z,21.97
2022-09-17T05:59:04.845Z,27.25
2022-09-17T06:04:08.228Z,30.99
2022-09-17T06:15:21.995Z,33.96
2022-09-17T06:20:24.025Z,34.15
2022-09-17T06:25:26.810Z,34.16
2022-09-17T06:30:29.119Z,34.03
2022-09-17T06:35:31.158Z,33.45
2022-09-17T06:40:33.337Z,29.42
2022-09-17T06:45:35.461Z,33.41
2022-09-17T06:50:42.493Z,34.23
2022-09-17T06:55:45.492Z,32.66
2022-09-17T07:00:47.983Z,30.15
2022-09-17T07:06:13.002Z,27.81
2022-09-17T07:11:24.960Z,27.10
2022-09-17T07:16:30.539Z,26.48
2022-09-17T07:21:38.631Z,25.72
2022-09-17T07:26:43.141Z,24.91
2022-09-17T07:31:46.406Z,24.32
2022-09-17T07:36:49.213Z,24.27
2022-09-17T07:41:55.496Z,24.42
2022-09-17T07:47:04.963Z,24.57
2022-09-17T07:52:07.517Z,24.97
2022-09-17T07:57:09.856Z,25.69
2022-09-17T08:02:24.417Z,27.34
2022-09-17T08:07:30.187Z,28.57
2022-09-17T08:12:32.447Z,28.49
2022-09-17T08:17:38.388Z,30.22
2022-09-17T08:22:41.212Z,30.80
2022-09-17T08:27:51.437Z,30.88
2022-09-17T08:32:57.140Z,29.87
2022-09-17T08:38:02.228Z,28.73
2022-09-17T08:43:07.702Z,29.21
2022-09-17T08:48:14.971Z,30.14
2022-09-17T08:53:32.399Z,31.94
2022-09-17T08:58:41.252Z,33.36
2022-09-17T09:04:20.794Z,33.54
2022-09-17T09:09:28.379Z,32.95
2022-09-17T09:14:44.467Z,33.25
2022-09-17T09:19:50.262Z,35.02
2022-09-17T09:25:24.865Z,33.62
2022-09-17T09:30:53.959Z,32.50
2022-09-17T09:35:56.314Z,33.33
2022-09-17T09:41:19.618Z,33.70
2022-09-17T09:46:52.336Z,35.19
2022-09-17T09:52:00.787Z,36.25
2022-09-17T09:57:32.397Z,36.45
2022-09-17T10:02:34.923Z,37.24
2022-09-17T10:07:45.273Z,37.40
2022-09-17T10:12:47.585Z,36.16
2022-09-17T10:17:49.668Z,36.77
2022-09-17T10:22:51.932Z,36.84
2022-09-17T10:27:54.501Z,35.47
2022-09-17T10:33:44.320Z,34.13
2022-09-17T10:38:47.508Z,33.14
2022-09-17T10:43:50.799Z,33.13
2022-09-17T10:49:08.389Z,32.65
2022-09-17T10:54:13.679Z,31.90
2022-09-17T10:59:25.171Z,31.15
2022-09-17T11:04:49.395Z,30.28
2022-09-17T11:10:13.238Z,28.98
2022-09-17T11:15:21.517Z,27.71
2022-09-17T11:20:42.546Z,26.83
2022-09-17T11:25:56.105Z,25.71
2022-09-17T11:31:24.383Z,25.36
2022-09-17T11:36:33.482Z,24.79
2022-09-17T11:41:44.207Z,23.94
2022-09-17T11:53:57.345Z,21.65
2022-09-17T11:59:06.434Z,20.36
2022-09-17T12:04:28.139Z,19.47
2022-09-17T12:10:22.343Z,18.85
2022-09-17T12:15:35.691Z,17.68
2022-09-17T12:20:42.430Z,17.79
2022-09-17T12:26:10.768Z,18.12
2022-09-17T12:31:34.429Z,18.73
2022-09-17T12:37:00.405Z,19.25
2022-09-17T12:42:21.817Z,20.05
2022-09-17T12:47:42.577Z,20.35
2022-09-17T12:53:14.518Z,20.25
2022-09-17T12:58:38.885Z,20.11
2022-09-17T13:03:55.310Z,19.97
2022-09-17T13:09:28.811Z,19.98
2022-09-17T13:15:08.116Z,20.63
2022-09-17T13:20:22.447Z,20.67
2022-09-17T13:25:27.377Z,20.90
2022-09-17T13:30:59.915Z,21.39
2022-09-17T13:36:03.961Z,21.40
2022-09-17T13:41:22.018Z,21.62
2022-09-17T13:46:29.399Z,22.12
2022-09-17T13:51:32.354Z,21.89
2022-09-17T13:56:39.299Z,21.97
2022-09-17T14:02:05.000Z,22.15
2022-09-17T14:07:24.049Z,21.95
2022-09-17T14:12:41.691Z,22.58
2022-09-17T14:17:52.302Z,22.49
2022-09-17T14:23:00.154Z,22.79
2022-09-17T14:28:26.741Z,22.68
2022-09-17T14:33:32.326Z,22.44
2022-09-17T14:38:38.789Z,22.64
2022-09-17T14:43:57.666Z,22.80
2022-09-17T14:49:21.247Z,22.89
2022-09-17T14:54:32.355Z,22.96
2022-09-17T14:59:37.492Z,22.87
2022-09-17T15:04:43.930Z,22.77
2022-09-17T15:09:46.076Z,22.51
2022-09-17T15:14:48.637Z,22.28
2022-09-17T15:19:55.069Z,21.60
2022-09-17T15:25:03.854Z,21.54
2022-09-17T15:30:10.322Z,21.59
2022-09-17T15:35:15.892Z,21.59
2022-09-17T15:40:34.984Z,21.52
2022-09-17T15:45:39.390Z,21.03
2022-09-17T15:50:55.978Z,21.03
2022-09-17T15:56:08.730Z,20.99
2022-09-17T16:01:17.669Z,21.02
2022-09-17T16:06:24.987Z,20.79
2022-09-17T16:11:30.431Z,20.37
2022-09-17T16:16:36.011Z,20.14
2022-09-17T16:21:38.623Z,20.00
2022-09-17T16:26:42.070Z,20.01
2022-09-17T16:31:49.465Z,19.41
2022-09-17T16:37:20.049Z,19.45
2022-09-17T16:42:26.485Z,19.32
2022-09-17T16:47:39.598Z,19.20
2022-09-17T16:52:56.255Z,19.18
2022-09-17T16:57:59.288Z,19.04
2022-09-17T17:03:01.805Z,18.70
2022-09-17T17:08:06.740Z,18.66
2022-09-17T17:13:09.102Z,18.34
2022-09-17T17:18:11.462Z,18.02
2022-09-17T17:23:13.900Z,17.83
2022-09-17T17:28:20.592Z,17.50
2022-09-17T17:33:22.815Z,17.34
2022-09-17T17:38:25.058Z,17.23
2022-09-17T17:43:32.357Z,17.18
2022-09-17T17:48:35.757Z,16.98
2022-09-17T17:53:41.951Z,16.97
2022-09-17T17:58:44.607Z,16.81
2022-09-17T18:03:47.577Z,16.86
2022-09-17T18:08:49.733Z,17.24
2022-09-17T18:13:54.290Z,17.12
2022-09-17T18:18:59.285Z,16.91
2022-09-17T18:24:03.568Z,16.77
2022-09-17T18:29:08.268Z,16.92
2022-09-17T18:34:16.137Z,16.75
2022-09-17T18:44:41.472Z,16.95
2022-09-17T18:49:44.617Z,17.10
2022-09-17T18:55:05.560Z,17.14
2022-09-17T19:00:12.932Z,17.24
2022-09-17T19:05:17.383Z,17.59
2022-09-17T19:10:23.327Z,18.04
2022-09-17T19:15:27.620Z,18.17
2022-09-17T19:20:40.232Z,18.36
2022-09-17T19:25:50.272Z,18.51
2022-09-17T19:30:56.007Z,18.74
2022-09-17T19:36:08.902Z,18.44
2022-09-17T19:41:16.201Z,18.29
2022-09-17T19:46:23.498Z,18.20
2022-09-17T19:51:30.818Z,17.76
2022-09-17T20:01:53.650Z,17.44
2022-09-17T20:07:06.798Z,17.49
2022-09-17T20:12:10.216Z,17.47
2022-09-17T20:17:41.990Z,17.60
2022-09-17T20:22:44.217Z,17.51
2022-09-17T20:27:46.325Z,16.91
2022-09-17T20:32:48.826Z,16.75
2022-09-17T20:43:13.385Z,16.46
2022-09-17T20:48:15.506Z,16.41
2022-09-17T20:53:17.794Z,16.49
2022-09-17T20:58:20.407Z,16.83
2022-09-17T21:03:23.185Z,17.33
2022-09-17T21:08:25.454Z,17.33
2022-09-17T21:13:27.492Z,17.50
2022-09-17T21:18:30.181Z,17.47
2022-09-17T21:23:35.567Z,17.65
2022-09-17T21:28:38.634Z,17.95
2022-09-17T21:33:41.893Z,18.27
2022-09-17T21:38:44.595Z,18.40
2022-09-17T21:43:47.312Z,18.10
2022-09-17T21:48:54.318Z,18.05
2022-09-17T21:54:02.136Z,17.75
2022-09-17T21:59:07.046Z,17.38
2022-09-17T22:04:15.098Z,17.18
2022-09-17T22:09:20.838Z,17.28
2022-09-17T22:14:24.642Z,17.17
2022-09-17T22:19:27.010Z,17.01
2022-09-17T22:24:29.282Z,16.77
2022-09-17T22:29:33.869Z,16.37
2022-09-17T22:34:36.047Z,16.00
2022-09-17T22:39:38.532Z,15.57
2022-09-17T22:44:42.206Z,15.56
2022-09-17T22:49:44.605Z,15.11
2022-09-17T22:54:46.705Z,15.16
2022-09-17T22:59:48.760Z,15.11
2022-09-17T23:04:51.015Z,15.16
2022-09-17T23:09:53.270Z,15.13
2022-09-17T23:14:55.476Z,15.37
2022-09-17T23:19:58.130Z,15.27
2022-09-17T23:25:00.164Z,15.35
2022-09-17T23:30:02.469Z,15.11
2022-09-17T23:35:04.946Z,15.26
2022-09-17T23:40:08.442Z,15.03
2022-09-17T23:45:10.882Z,15.36
2022-09-17T23:50:13.575Z,15.21
2022-09-17T23:55:15.729Z,15.75
